Time;durP1;ratioP1;P1;durP2;ratioP2;P2;SDS_P1;SDS_P2;PMS_P1;PMS_P2;Temp;Humidity;BMP_temperature;BMP_pressure;BME280_temperature;BME280_humidity;BME280_pressure;Samples;Min_cycle;Max_cycle;Signal;HPM_P1;HPM_P2
2023/06/28 00:01:00;;;;;;;;;;;;;;;14.48;100.00;97960.28;18563959;32;20037;-46
2023/06/28 00:11:03;;;;;;;;;;;;;;;14.35;100.00;97968.03;18563364;32;20008;-46
2023/06/28 00:21:05;;;;;;;;;;;;;;;14.21;100.00;97957.00;18563144;32;20419;-47
2023/06/28 00:31:10;;;;;;;;;;;;;;;14.12;100.00;97968.78;18561878;32;19944;-47
2023/06/28 00:41:12;;;;;;;;;;;;;;;14.05;100.00;97967.19;18547020;32;19956;-47
2023/06/28 00:51:15;;;;;;;;;;;;;;;14.05;100.00;97945.44;18561504;32;19944;-48
2023/06/28 01:01:17;;;;;;;;;;;;;;;14.09;100.00;97953.84;18560815;32;19961;-45
2023/06/28 01:11:20;;;;;;;;;;;;;;;14.00;100.00;97963.72;18560619;32;20394;-45
2023/06/28 01:21:25;;;;;;;;;;;;;;;13.83;100.00;97975.00;18560416;32;19957;-48
2023/06/28 01:31:30;;;;;;;;;;;;;;;13.73;100.00;97968.56;18545457;32;19952;-49
2023/06/28 01:41:32;;;;;;;;;;;;;;;13.68;100.00;97981.37;18559611;32;20034;-48
2023/06/28 01:51:35;;;;;;;;;;;;;;;13.56;100.00;97985.22;18563617;32;19985;-47
2023/06/28 02:01:37;;;;;;;;;;;;;;;13.45;100.00;97977.44;18570841;31;20366;-49
2023/06/28 02:11:40;;;;;;;;;;;;;;;13.36;100.00;97980.75;18570732;32;19995;-47
2023/06/28 02:21:42;;;;;;;;;;;;;;;13.30;100.00;97968.25;18570014;32;20008;-48
2023/06/28 02:31:44;;;;;;;;;;;;;;;13.23;100.00;97965.84;18569291;32;19964;-48
2023/06/28 02:41:47;;;;;;;;;;;;;;;13.15;100.00;97963.72;18568623;32;19998;-47
2023/06/28 02:51:49;;;;;;;;;;;;;;;13.04;100.00;97967.56;18568275;32;19957;-48
2023/06/28 03:01:52;;;;;;;;;;;;;;;12.97;100.00;97956.22;18566638;32;20024;-48
2023/06/28 03:11:54;;;;;;;;;;;;;;;12.91;100.00;97946.47;18552763;32;19949;-47
2023/06/28 03:21:56;;;;;;;;;;;;;;;13.03;100.00;97927.94;18551631;32;19968;-49
2023/06/28 03:31:59;;;;;;;;;;;;;;;13.00;100.00;97923.88;18565379;32;20004;-49
2023/06/28 03:42:01;;;;;;;;;;;;;;;12.98;100.00;97920.66;18565476;32;19945;-47
2023/06/28 03:52:04;;;;;;;;;;;;;;;13.04;100.00;97937.72;18564310;32;19993;-48
2023/06/28 04:02:07;;;;;;;;;;;;;;;13.20;100.00;97925.69;18563854;32;19964;-47
2023/06/28 04:12:10;;;;;;;;;;;;;;;13.35;100.00;97924.81;18549134;32;19952;-49
2023/06/28 04:22:13;;;;;;;;;;;;;;;13.45;100.00;97923.91;18562764;32;19948;-49
2023/06/28 04:32:23;;;;;;;;;;;;;;;13.55;100.00;97918.44;18547647;32;19987;-47
2023/06/28 04:42:26;;;;;;;;;;;;;;;13.69;100.00;97910.44;18561970;32;19968;-49
2023/06/28 04:52:29;;;;;;;;;;;;;;;13.85;100.00;97915.72;18547182;32;19972;-47
2023/06/28 05:02:33;;;;;;;;;;;;;;;14.00;100.00;97922.94;18546774;32;19964;-47
2023/06/28 05:12:36;;;;;;;;;;;;;;;14.20;100.00;97924.66;18560848;32;19999;-47
2023/06/28 05:22:43;;;;;;;;;;;;;;;14.40;100.00;97931.78;18546330;32;19985;-50
2023/06/28 05:32:46;;;;;;;;;;;;;;;14.61;100.00;97926.09;18572298;32;20028;-47
2023/06/28 05:42:48;;;;;;;;;;;;;;;14.81;100.00;97935.97;18558263;32;19953;-47
2023/06/28 05:52:51;;;;;;;;;;;;;;;15.02;100.00;97947.41;18557773;32;19948;-47
2023/06/28 06:02:54;;;;;;;;;;;;;;;15.30;100.00;97944.88;18556850;32;20004;-48
2023/06/28 06:12:57;;;;;;;;;;;;;;;15.58;100.00;97948.53;18570728;32;19983;-47
2023/06/28 06:23:01;;;;;;;;;;;;;;;15.77;100.00;97951.25;18569815;32;20047;-47
2023/06/28 06:33:05;;;;;;;;;;;;;;;16.09;100.00;97952.41;18568924;31;19967;-48
2023/06/28 06:43:08;;;;;;;;;;;;;;;16.47;100.00;97960.44;18567857;32;20008;-48
2023/06/28 06:53:11;;;;;;;;;;;;;;;16.89;100.00;97964.03;18568325;32;19953;-48
2023/06/28 07:03:14;;;;;;;;;;;;;;;17.22;100.00;97977.56;18553222;32;20000;-48
2023/06/28 07:13:17;;;;;;;;;;;;;;;17.50;100.00;97974.78;18552595;32;19953;-48
2023/06/28 07:23:20;;;;;;;;;;;;;;;17.76;100.00;97993.31;18552353;32;19952;-50
2023/06/28 07:33:23;;;;;;;;;;;;;;;17.98;100.00;97992.56;18565396;32;20012;-49
2023/06/28 07:43:26;;;;;;;;;;;;;;;18.33;100.00;98001.00;18565216;32;19996;-48
2023/06/28 07:53:29;;;;;;;;;;;;;;;18.84;100.00;98011.72;18550387;32;20324;-49
2023/06/28 08:03:32;;;;;;;;;;;;;;;19.33;100.00;98006.28;18563790;32;19960;-50
2023/06/28 08:13:36;;;;;;;;;;;;;;;19.84;100.00;98010.22;18563637;32;19948;-50
2023/06/28 08:23:39;;;;;;;;;;;;;;;20.17;100.00;98009.69;18562593;31;19999;-49
2023/06/28 08:33:42;;;;;;;;;;;;;;;20.41;98.08;98006.44;18562258;32;19956;-48
2023/06/28 08:43:50;;;;;;;;;;;;;;;20.72;94.51;98018.34;18547800;32;20020;-48
2023/06/28 08:53:55;;;;;;;;;;;;;;;21.06;90.32;98022.88;18561554;32;19990;-49
2023/06/28 09:03:58;;;;;;;;;;;;;;;21.69;90.61;98013.16;18560420;32;19989;-50
2023/06/28 09:14:01;;;;;;;;;;;;;;;22.05;75.21;98014.50;18560862;32;19957;-48
2023/06/28 09:24:09;;;;;;;;;;;;;;;22.29;74.97;98011.81;18560439;32;19952;-51
2023/06/28 09:34:12;;;;;;;;;;;;;;;22.83;79.10;98012.91;18560409;32;19971;-48
2023/06/28 09:44:28;;;;;;;;;;;;;;;23.04;74.50;98003.72;18545942;32;19963;-48
2023/06/28 09:54:44;;;;;;;;;;;;;;;22.81;62.44;98001.41;18545806;32;19960;-48
2023/06/28 10:04:48;;;;;;;;;;;;;;;22.88;62.10;97985.09;18559423;32;19980;-50
2023/06/28 10:14:56;;;;;;;;;;;;;;;22.93;62.16;97979.38;18566063;32;19949;-52
2023/06/28 10:25:05;;;;;;;;;;;;;;;23.43;64.02;97971.88;18569899;32;19969;-51
2023/06/28 10:35:08;;;;;;;;;;;;;;;23.84;61.07;97969.94;18555409;32;19971;-49
2023/06/28 10:45:11;;;;;;;;;;;;;;;23.72;62.72;97974.69;18554783;32;20333;-48
2023/06/28 10:55:20;;;;;;;;;;;;;;;23.91;58.70;97968.56;18568322;32;19948;-48
2023/06/28 11:05:51;;;;;;;;;;;;;;;24.37;58.27;97969.03;18540328;32;20328;-47
2023/06/28 11:16:04;;;;;;;;;;;;;;;24.90;55.56;97968.81;18565354;32;19953;-46
2023/06/28 11:26:07;;;;;;;;;;;;;;;25.82;50.25;97962.97;18565699;31;19965;-47
2023/06/28 11:36:11;;;;;;;;;;;;;;;26.61;49.55;97960.91;18565918;32;19956;-47
2023/06/28 11:46:18;;;;;;;;;;;;;;;26.69;46.40;97959.84;18564940;32;19949;-47
2023/06/28 11:56:34;;;;;;;;;;;;;;;26.48;47.02;97953.97;18564639;32;19956;-46
2023/06/28 12:06:37;;;;;;;;;;;;;;;26.59;49.22;97943.84;18563768;31;20399;-46
2023/06/28 12:16:42;;;;;;;;;;;;;;;27.12;48.09;97928.44;18563058;32;19972;-47
2023/06/28 12:26:47;;;;;;;;;;;;;;;27.37;45.37;97926.84;18562543;32;19945;-47
2023/06/28 12:36:54;;;;;;;;;;;;;;;27.60;41.40;97923.19;18561588;32;19996;-47
2023/06/28 12:46:57;;;;;;;;;;;;;;;27.89;40.49;97921.56;18561852;32;19965;-46
2023/06/28 12:57:02;;;;;;;;;;;;;;;28.39;42.54;97924.09;18561128;31;19960;-49
2023/06/28 13:07:07;;;;;;;;;;;;;;;28.81;40.14;97921.28;18546971;32;20287;-48
2023/06/28 13:17:11;;;;;;;;;;;;;;;29.49;37.95;97918.13;18546189;32;20320;-48
2023/06/28 13:27:15;;;;;;;;;;;;;;;29.55;36.51;97914.59;18560127;31;20000;-48
2023/06/28 13:37:18;;;;;;;;;;;;;;;29.14;39.06;97906.41;18560172;32;19978;-48
2023/06/28 13:47:30;;;;;;;;;;;;;;;29.48;41.91;97905.41;18563991;32;20316;-47
2023/06/28 13:57:32;;;;;;;;;;;;;;;29.50;36.16;97901.03;18557728;32;19940;-48
2023/06/28 14:07:35;;;;;;;;;;;;;;;29.94;37.84;97890.88;18557015;32;20345;-48
2023/06/28 14:17:38;;;;;;;;;;;;;;;30.04;39.76;97890.09;18570646;32;19971;-51
2023/06/28 14:27:42;;;;;;;;;;;;;;;29.95;34.60;97892.47;18556306;31;20315;-47
2023/06/28 14:37:47;;;;;;;;;;;;;;;29.92;36.57;97880.13;18569798;32;20009;-51
2023/06/28 14:47:50;;;;;;;;;;;;;;;30.59;37.12;97868.66;18568284;31;19997;-48
2023/06/28 14:57:54;;;;;;;;;;;;;;;31.04;36.24;97862.62;18567380;32;19961;-48
2023/06/28 15:07:57;;;;;;;;;;;;;;;30.65;36.91;97855.88;18567639;32;20043;-50
2023/06/28 15:18:00;;;;;;;;;;;;;;;29.34;36.86;97833.72;18552582;32;20234;-50
2023/06/28 15:28:07;;;;;;;;;;;;;;;28.81;38.94;97826.69;18566305;31;19952;-47
2023/06/28 15:38:09;;;;;;;;;;;;;;;28.22;38.00;97810.72;18565729;32;20273;-47
2023/06/28 15:48:12;;;;;;;;;;;;;;;27.66;38.42;97805.00;18550301;32;20277;-47
2023/06/28 15:58:16;;;;;;;;;;;;;;;27.33;37.52;97795.50;18550453;32;19949;-47
2023/06/28 16:08:19;;;;;;;;;;;;;;;27.29;38.95;97789.09;18563833;32;19949;-47
2023/06/28 16:18:22;;;;;;;;;;;;;;;26.81;41.86;97778.59;18563327;32;20234;-49
2023/06/28 16:28:25;;;;;;;;;;;;;;;26.63;41.47;97777.53;18562446;32;20238;-46
2023/06/28 16:38:28;;;;;;;;;;;;;;;26.62;43.81;97781.47;18561998;31;19982;-47
2023/06/28 16:48:32;;;;;;;;;;;;;;;27.66;40.49;97782.78;18561760;32;19956;-49
2023/06/28 16:58:36;;;;;;;;;;;;;;;27.06;41.16;97778.09;18561168;32;19969;-49
2023/06/28 17:08:41;;;;;;;;;;;;;;;26.28;43.05;97773.81;18561072;32;19945;-46
2023/06/28 17:18:44;;;;;;;;;;;;;;;25.87;41.98;97760.47;18560854;32;19981;-46
2023/06/28 17:28:47;;;;;;;;;;;;;;;25.93;44.93;97774.81;18572516;31;20292;-48
2023/06/28 17:38:52;;;;;;;;;;;;;;;25.60;43.69;97767.09;18559659;32;19949;-47
2023/06/28 17:48:56;;;;;;;;;;;;;;;25.50;45.89;97768.50;18545798;32;20331;-48
2023/06/28 17:59:01;;;;;;;;;;;;;;;25.14;47.24;97774.13;18571645;32;20008;-46
2023/06/28 18:09:04;;;;;;;;;;;;;;;25.93;52.34;97774.00;18556104;32;19952;-47
2023/06/28 18:19:10;;;;;;;;;;;;;;;29.54;47.05;97778.47;18556502;32;19975;-48
2023/06/28 18:29:14;;;;;;;;;;;;;;;28.55;49.06;97781.16;18555276;31;19944;-47
2023/06/28 18:39:18;;;;;;;;;;;;;;;25.28;60.04;97761.72;18569583;32;20000;-47
2023/06/28 18:49:21;;;;;;;;;;;;;;;23.58;68.43;97759.78;18554829;32;19960;-46
2023/06/28 18:59:24;;;;;;;;;;;;;;;22.61;79.98;97749.56;18568138;32;20332;-48
2023/06/28 19:09:26;;;;;;;;;;;;;;;21.89;85.47;97741.78;18540411;32;19998;-46
2023/06/28 19:19:29;;;;;;;;;;;;;;;21.31;90.71;97753.59;18566870;31;19948;-46
2023/06/28 19:29:32;;;;;;;;;;;;;;;20.81;97.06;97745.09;18565920;31;20314;-46
2023/06/28 19:39:35;;;;;;;;;;;;;;;20.32;100.00;97750.25;18565903;32;20280;-46
2023/06/28 19:49:38;;;;;;;;;;;;;;;19.92;100.00;97759.66;18564691;32;20366;-47
2023/06/28 19:59:42;;;;;;;;;;;;;;;19.54;100.00;97776.91;18564337;32;20230;-47
2023/06/28 20:09:49;;;;;;;;;;;;;;;19.21;100.00;97776.63;18563976;32;19969;-46
2023/06/28 20:19:52;;;;;;;;;;;;;;;18.92;100.00;97778.09;18563280;32;19956;-47
2023/06/28 20:29:55;;;;;;;;;;;;;;;18.58;100.00;97783.19;18562546;31;19956;-46
2023/06/28 20:40:00;;;;;;;;;;;;;;;18.34;100.00;97783.63;18562218;32;19957;-47
2023/06/28 20:50:03;;;;;;;;;;;;;;;18.08;100.00;97783.56;18561648;32;19965;-46
2023/06/28 21:00:12;;;;;;;;;;;;;;;17.91;100.00;97785.09;18560838;32;20351;-47
2023/06/28 21:10:15;;;;;;;;;;;;;;;17.71;100.00;97793.81;18561251;32;19971;-47
2023/06/28 21:20:18;;;;;;;;;;;;;;;17.53;100.00;97806.59;18560531;32;20348;-45
2023/06/28 21:30:23;;;;;;;;;;;;;;;17.36;100.00;97796.34;18560021;32;19952;-45
2023/06/28 21:40:25;;;;;;;;;;;;;;;17.20;100.00;97787.72;18546063;32;19996;-45
2023/06/28 21:50:28;;;;;;;;;;;;;;;17.03;100.00;97791.13;18559690;32;19968;-45
2023/06/28 22:00:31;;;;;;;;;;;;;;;16.87;100.00;97796.91;18559388;32;19980;-45
2023/06/28 22:10:34;;;;;;;;;;;;;;;16.73;100.00;97783.31;18565028;31;19964;-45
2023/06/28 22:20:38;;;;;;;;;;;;;;;16.56;100.00;97789.38;18571034;32;19971;-45
2023/06/28 22:30:41;;;;;;;;;;;;;;;16.43;100.00;97785.59;18569525;32;20364;-47
2023/06/28 22:40:44;;;;;;;;;;;;;;;16.32;100.00;97794.28;18569470;32;19968;-46
2023/06/28 22:50:47;;;;;;;;;;;;;;;16.16;100.00;97782.87;18568902;32;20234;-45
2023/06/28 23:00:53;;;;;;;;;;;;;;;16.05;100.00;97776.81;18567832;32;19967;-45
2023/06/28 23:10:56;;;;;;;;;;;;;;;15.90;100.00;97776.00;18567621;32;19967;-46
2023/06/28 23:20:58;;;;;;;;;;;;;;;15.79;100.00;97763.66;18566357;32;20001;-45
2023/06/28 23:31:02;;;;;;;;;;;;;;;15.68;100.00;97767.69;18551604;32;19957;-47
2023/06/28 23:41:09;;;;;;;;;;;;;;;15.55;100.00;97759.19;18565801;32;19967;-47
2023/06/28 23:51:12;;;;;;;;;;;;;;;15.42;100.00;97744.41;18564997;32;20009;-46
